sensor_id;sensor_type;location;lat;lon;timestamp;pressure;altitude;pressure_sealevel;temperature;humidity
39491;BME280;25175;50.140;18.990;2023-07-13T00:04:06;98162.47;;;20.74;62.66
39491;BME280;25175;50.140;18.990;2023-07-13T00:07:18;98164.09;;;20.70;62.95
39491;BME280;25175;50.140;18.990;2023-07-13T00:10:26;98156.72;;;20.62;62.53
39491;BME280;25175;50.140;18.990;2023-07-13T00:13:31;98163.16;;;20.56;63.38
39491;BME280;25175;50.140;18.990;2023-07-13T00:16:46;98148.84;;;20.47;63.61
39491;BME280;25175;50.140;18.990;2023-07-13T00:20:19;98123.81;;;20.43;64.05
39491;BME280;25175;50.140;18.990;2023-07-13T00:23:54;98151.03;;;20.40;63.46
39491;BME280;25175;50.140;18.990;2023-07-13T00:27:05;98137.44;;;20.36;64.27
39491;BME280;25175;50.140;18.990;2023-07-13T00:30:30;98130.81;;;20.34;64.32
39491;BME280;25175;50.140;18.990;2023-07-13T00:34:22;98111.41;;;20.28;64.96
39491;BME280;25175;50.140;18.990;2023-07-13T00:41:59;98110.16;;;19.77;65.86
39491;BME280;25175;50.140;18.990;2023-07-13T00:46:18;98100.91;;;19.70;66.18
39491;BME280;25175;50.140;18.990;2023-07-13T00:49:30;98088.97;;;19.57;66.67
39491;BME280;25175;50.140;18.990;2023-07-13T00:52:43;98102.56;;;19.46;67.23
39491;BME280;25175;50.140;18.990;2023-07-13T00:56:03;98108.19;;;19.44;67.47
39491;BME280;25175;50.140;18.990;2023-07-13T01:00:18;98124.69;;;19.51;67.30
39491;BME280;25175;50.140;18.990;2023-07-13T01:04:04;98113.50;;;19.54;67.17
39491;BME280;25175;50.140;18.990;2023-07-13T01:08:11;98131.28;;;19.64;67.55
39491;BME280;25175;50.140;18.990;2023-07-13T01:11:41;98108.22;;;19.39;67.03
39491;BME280;25175;50.140;18.990;2023-07-13T01:14:59;98019.25;;;19.02;67.67
39491;BME280;25175;50.140;18.990;2023-07-13T01:18:12;98090.56;;;19.58;68.02
39491;BME280;25175;50.140;18.990;2023-07-13T01:25:13;98125.63;;;19.70;67.75
39491;BME280;25175;50.140;18.990;2023-07-13T01:28:43;98132.56;;;19.71;67.61
39491;BME280;25175;50.140;18.990;2023-07-13T01:32:20;98128.56;;;19.74;67.62
39491;BME280;25175;50.140;18.990;2023-07-13T01:35:38;98145.06;;;19.76;67.83
39491;BME280;25175;50.140;18.990;2023-07-13T01:42:30;98148.78;;;19.75;67.71
39491;BME280;25175;50.140;18.990;2023-07-13T01:45:49;98161.31;;;19.69;68.05
39491;BME280;25175;50.140;18.990;2023-07-13T01:49:02;98165.38;;;19.57;68.40
39491;BME280;25175;50.140;18.990;2023-07-13T01:52:16;98155.53;;;19.52;68.20
39491;BME280;25175;50.140;18.990;2023-07-13T01:59:35;98163.84;;;19.41;68.02
39491;BME280;25175;50.140;18.990;2023-07-13T02:06:40;98112.22;;;19.37;67.88
39491;BME280;25175;50.140;18.990;2023-07-13T02:10:07;98077.66;;;19.27;67.69
39491;BME280;25175;50.140;18.990;2023-07-13T02:13:48;98099.16;;;19.40;67.49
39491;BME280;25175;50.140;18.990;2023-07-13T02:17:22;98105.84;;;19.33;67.53
39491;BME280;25175;50.140;18.990;2023-07-13T02:24:48;98076.81;;;19.36;67.33
39491;BME280;25175;50.140;18.990;2023-07-13T02:35:43;98061.06;;;19.50;67.56
39491;BME280;25175;50.140;18.990;2023-07-13T02:38:52;98062.16;;;19.44;67.61
39491;BME280;25175;50.140;18.990;2023-07-13T02:46:12;98056.28;;;19.47;68.01
39491;BME280;25175;50.140;18.990;2023-07-13T02:49:30;98052.81;;;19.51;67.73
39491;BME280;25175;50.140;18.990;2023-07-13T02:52:45;98052.56;;;19.53;67.85
39491;BME280;25175;50.140;18.990;2023-07-13T02:56:03;98031.56;;;19.41;68.06
39491;BME280;25175;50.140;18.990;2023-07-13T02:59:12;98046.16;;;19.54;67.57
39491;BME280;25175;50.140;18.990;2023-07-13T03:02:23;98048.81;;;19.54;67.76
39491;BME280;25175;50.140;18.990;2023-07-13T03:09:02;98084.75;;;19.46;67.65
39491;BME280;25175;50.140;18.990;2023-07-13T03:12:35;98092.75;;;19.41;67.97
39491;BME280;25175;50.140;18.990;2023-07-13T03:15:57;98090.63;;;19.43;68.20
39491;BME280;25175;50.140;18.990;2023-07-13T03:19:08;98088.75;;;19.49;68.37
39491;BME280;25175;50.140;18.990;2023-07-13T03:24:06;98066.69;;;19.43;68.49
39491;BME280;25175;50.140;18.990;2023-07-13T03:27:14;98079.91;;;19.58;68.66
39491;BME280;25175;50.140;18.990;2023-07-13T03:30:26;98076.47;;;19.58;68.88
39491;BME280;25175;50.140;18.990;2023-07-13T03:34:07;98073.56;;;19.54;69.50
39491;BME280;25175;50.140;18.990;2023-07-13T03:37:46;98084.25;;;19.49;69.98
39491;BME280;25175;50.140;18.990;2023-07-13T03:41:06;98094.66;;;19.36;70.34
39491;BME280;25175;50.140;18.990;2023-07-13T03:44:16;98099.22;;;19.25;70.45
39491;BME280;25175;50.140;18.990;2023-07-13T03:51:51;98120.63;;;18.95;71.48
39491;BME280;25175;50.140;18.990;2023-07-13T03:55:04;97913.34;;;17.52;71.78
39491;BME280;25175;50.140;18.990;2023-07-13T03:58:28;98125.94;;;18.70;72.24
39491;BME280;25175;50.140;18.990;2023-07-13T04:02:15;98133.94;;;18.65;72.32
39491;BME280;25175;50.140;18.990;2023-07-13T04:05:38;98138.19;;;18.61;72.79
39491;BME280;25175;50.140;18.990;2023-07-13T04:08:53;98130.22;;;18.56;72.78
39491;BME280;25175;50.140;18.990;2023-07-13T04:12:02;98149.63;;;18.57;73.29
39491;BME280;25175;50.140;18.990;2023-07-13T04:18:52;98150.44;;;18.62;73.38
39491;BME280;25175;50.140;18.990;2023-07-13T04:22:02;98155.75;;;18.62;73.32
39491;BME280;25175;50.140;18.990;2023-07-13T04:25:12;98133.72;;;18.47;73.46
39491;BME280;25175;50.140;18.990;2023-07-13T04:28:27;98153.09;;;18.67;73.44
39491;BME280;25175;50.140;18.990;2023-07-13T04:31:52;98150.94;;;18.69;73.77
39491;BME280;25175;50.140;18.990;2023-07-13T04:35:10;98136.56;;;18.70;73.84
39491;BME280;25175;50.140;18.990;2023-07-13T04:38:44;98131.25;;;18.70;74.09
39491;BME280;25175;50.140;18.990;2023-07-13T04:41:51;98129.16;;;18.72;73.77
39491;BME280;25175;50.140;18.990;2023-07-13T04:44:59;98140.31;;;18.74;74.03
39491;BME280;25175;50.140;18.990;2023-07-13T04:48:09;98139.25;;;18.80;74.55
39491;BME280;25175;50.140;18.990;2023-07-13T04:55:24;98125.34;;;19.08;74.10
39491;BME280;25175;50.140;18.990;2023-07-13T04:58:49;98121.59;;;19.14;74.07
39491;BME280;25175;50.140;18.990;2023-07-13T05:01:55;98109.34;;;19.23;74.34
39491;BME280;25175;50.140;18.990;2023-07-13T05:05:02;98105.56;;;19.34;73.81
39491;BME280;25175;50.140;18.990;2023-07-13T05:08:08;98112.97;;;19.42;73.79
39491;BME280;25175;50.140;18.990;2023-07-13T05:11:18;97866.28;;;17.97;73.40
39491;BME280;25175;50.140;18.990;2023-07-13T05:14:34;98111.59;;;19.60;73.10
39491;BME280;25175;50.140;18.990;2023-07-13T05:17:54;98121.41;;;19.64;72.35
39491;BME280;25175;50.140;18.990;2023-07-13T05:21:15;98119.25;;;19.71;72.17
39491;BME280;25175;50.140;18.990;2023-07-13T05:24:36;98131.72;;;19.81;72.21
39491;BME280;25175;50.140;18.990;2023-07-13T05:28:19;98134.59;;;19.89;72.87
39491;BME280;25175;50.140;18.990;2023-07-13T05:31:35;98133.25;;;19.92;72.56
39491;BME280;25175;50.140;18.990;2023-07-13T05:34:42;98128.16;;;19.95;72.74
39491;BME280;25175;50.140;18.990;2023-07-13T05:37:48;98120.44;;;19.94;72.81
39491;BME280;25175;50.140;18.990;2023-07-13T05:40:57;98117.53;;;19.90;72.37
39491;BME280;25175;50.140;18.990;2023-07-13T05:44:11;98119.69;;;19.88;73.07
39491;BME280;25175;50.140;18.990;2023-07-13T05:47:49;98114.59;;;19.92;73.24
39491;BME280;25175;50.140;18.990;2023-07-13T05:50:55;98112.16;;;19.95;73.74
39491;BME280;25175;50.140;18.990;2023-07-13T05:54:04;98103.34;;;20.00;74.18
39491;BME280;25175;50.140;18.990;2023-07-13T05:57:14;98107.84;;;20.04;73.70
39491;BME280;25175;50.140;18.990;2023-07-13T06:04:37;98114.16;;;20.13;73.36
39491;BME280;25175;50.140;18.990;2023-07-13T06:11:43;98114.00;;;20.38;73.26
39491;BME280;25175;50.140;18.990;2023-07-13T06:15:10;98113.56;;;20.55;72.56
39491;BME280;25175;50.140;18.990;2023-07-13T06:18:33;98114.56;;;20.64;72.21
39491;BME280;25175;50.140;18.990;2023-07-13T06:22:16;97926.16;;;19.45;71.07
39491;BME280;25175;50.140;18.990;2023-07-13T06:25:24;98122.94;;;20.81;70.38
39491;BME280;25175;50.140;18.990;2023-07-13T06:28:32;98123.59;;;20.96;71.13
39491;BME280;25175;50.140;18.990;2023-07-13T06:31:41;98119.16;;;21.10;70.25
39491;BME280;25175;50.140;18.990;2023-07-13T06:34:54;98102.34;;;21.10;69.27
39491;BME280;25175;50.140;18.990;2023-07-13T06:38:16;98118.13;;;21.30;70.28
39491;BME280;25175;50.140;18.990;2023-07-13T06:41:33;98111.38;;;21.37;69.09
39491;BME280;25175;50.140;18.990;2023-07-13T06:44:52;98112.31;;;21.46;68.46
39491;BME280;25175;50.140;18.990;2023-07-13T06:48:43;98115.47;;;21.53;66.93
39491;BME280;25175;50.140;18.990;2023-07-13T06:51:55;98113.22;;;21.60;67.14
39491;BME280;25175;50.140;18.990;2023-07-13T06:55:01;98110.34;;;21.57;66.49
39491;BME280;25175;50.140;18.990;2023-07-13T06:58:11;98112.81;;;21.72;66.21
39491;BME280;25175;50.140;18.990;2023-07-13T07:01:19;98118.88;;;21.77;66.24
39491;BME280;25175;50.140;18.990;2023-07-13T07:04:26;98131.56;;;21.85;65.24
39491;BME280;25175;50.140;18.990;2023-07-13T07:07:37;98137.84;;;21.94;64.52
39491;BME280;25175;50.140;18.990;2023-07-13T07:10:43;98127.66;;;21.96;64.36
39491;BME280;25175;50.140;18.990;2023-07-13T07:13:58;98146.16;;;22.11;65.76
39491;BME280;25175;50.140;18.990;2023-07-13T07:17:20;98158.91;;;22.19;66.36
39491;BME280;25175;50.140;18.990;2023-07-13T07:20:26;98160.19;;;22.22;64.53
39491;BME280;25175;50.140;18.990;2023-07-13T07:23:34;98175.91;;;22.23;63.64
39491;BME280;25175;50.140;18.990;2023-07-13T07:26:53;98193.47;;;22.29;64.18
39491;BME280;25175;50.140;18.990;2023-07-13T07:30:01;98190.72;;;22.34;64.42
39491;BME280;25175;50.140;18.990;2023-07-13T07:33:06;98194.91;;;22.40;64.40
39491;BME280;25175;50.140;18.990;2023-07-13T07:36:13;98194.63;;;22.42;63.92
39491;BME280;25175;50.140;18.990;2023-07-13T07:39:21;98200.78;;;22.42;64.75
39491;BME280;25175;50.140;18.990;2023-07-13T07:42:27;98196.53;;;22.41;64.96
39491;BME280;25175;50.140;18.990;2023-07-13T07:45:38;98192.22;;;22.40;64.97
39491;BME280;25175;50.140;18.990;2023-07-13T07:48:46;98193.03;;;22.41;65.47
39491;BME280;25175;50.140;18.990;2023-07-13T07:51:51;98184.72;;;22.42;66.38
39491;BME280;25175;50.140;18.990;2023-07-13T07:55:07;98185.31;;;22.39;66.36
39491;BME280;25175;50.140;18.990;2023-07-13T07:58:12;98177.81;;;22.41;66.50
39491;BME280;25175;50.140;18.990;2023-07-13T08:01:18;98164.13;;;22.43;64.37
39491;BME280;25175;50.140;18.990;2023-07-13T08:04:23;98169.69;;;22.46;63.55
39491;BME280;25175;50.140;18.990;2023-07-13T08:07:31;98176.84;;;22.51;63.07
39491;BME280;25175;50.140;18.990;2023-07-13T08:10:39;98155.66;;;22.54;63.85
39491;BME280;25175;50.140;18.990;2023-07-13T08:13:55;98162.13;;;22.67;64.08
39491;BME280;25175;50.140;18.990;2023-07-13T08:17:01;98160.47;;;22.71;62.22
39491;BME280;25175;50.140;18.990;2023-07-13T08:20:09;98152.31;;;22.76;62.29
39491;BME280;25175;50.140;18.990;2023-07-13T08:23:18;98160.50;;;22.84;64.28
39491;BME280;25175;50.140;18.990;2023-07-13T08:26:30;98150.59;;;22.85;63.08
39491;BME280;25175;50.140;18.990;2023-07-13T08:29:36;98158.34;;;22.86;64.55
39491;BME280;25175;50.140;18.990;2023-07-13T08:32:42;98153.56;;;22.83;61.68
39491;BME280;25175;50.140;18.990;2023-07-13T08:39:56;98153.06;;;22.81;60.82
39491;BME280;25175;50.140;18.990;2023-07-13T08:43:04;98141.34;;;22.77;60.58
39491;BME280;25175;50.140;18.990;2023-07-13T08:46:15;98154.56;;;22.87;61.28
39491;BME280;25175;50.140;18.990;2023-07-13T08:49:31;98152.47;;;22.84;60.71
39491;BME280;25175;50.140;18.990;2023-07-13T08:52:44;98154.38;;;22.84;61.08
39491;BME280;25175;50.140;18.990;2023-07-13T08:55:57;98149.59;;;22.81;61.58
39491;BME280;25175;50.140;18.990;2023-07-13T08:59:24;98153.28;;;22.85;62.35
39491;BME280;25175;50.140;18.990;2023-07-13T09:02:54;98151.97;;;22.82;63.20
39491;BME280;25175;50.140;18.990;2023-07-13T09:06:10;98155.53;;;22.78;63.07
39491;BME280;25175;50.140;18.990;2023-07-13T09:09:32;98150.91;;;22.65;61.55
39491;BME280;25175;50.140;18.990;2023-07-13T09:13:31;98150.59;;;22.53;63.50
39491;BME280;25175;50.140;18.990;2023-07-13T09:16:48;98154.78;;;22.40;63.49
39491;BME280;25175;50.140;18.990;2023-07-13T09:20:30;98122.47;;;22.05;64.53
39491;BME280;25175;50.140;18.990;2023-07-13T09:23:41;98159.09;;;22.23;64.87
39491;BME280;25175;50.140;18.990;2023-07-13T09:27:11;98165.31;;;22.18;64.29
39491;BME280;25175;50.140;18.990;2023-07-13T09:30:30;98165.94;;;22.10;63.00
39491;BME280;25175;50.140;18.990;2023-07-13T09:33:44;98170.88;;;22.03;62.77
39491;BME280;25175;50.140;18.990;2023-07-13T09:36:51;98168.31;;;21.93;62.74
39491;BME280;25175;50.140;18.990;2023-07-13T09:40:07;98176.06;;;21.95;63.46
39491;BME280;25175;50.140;18.990;2023-07-13T09:43:21;98170.19;;;21.93;63.82
39491;BME280;25175;50.140;18.990;2023-07-13T09:46:29;98182.84;;;21.87;65.15
39491;BME280;25175;50.140;18.990;2023-07-13T09:49:37;98161.84;;;21.57;65.38
39491;BME280;25175;50.140;18.990;2023-07-13T09:53:21;98198.53;;;21.52;66.66
39491;BME280;25175;50.140;18.990;2023-07-13T09:56:45;98207.41;;;21.19;66.96
39491;BME280;25175;50.140;18.990;2023-07-13T09:59:54;98214.31;;;20.91;66.58
39491;BME280;25175;50.140;18.990;2023-07-13T10:03:17;98215.19;;;20.53;65.76
39491;BME280;25175;50.140;18.990;2023-07-13T10:06:28;98244.47;;;20.10;65.35
39491;BME280;25175;50.140;18.990;2023-07-13T10:09:55;98262.50;;;19.59;64.67
39491;BME280;25175;50.140;18.990;2023-07-13T10:13:09;98267.38;;;19.17;65.27
39491;BME280;25175;50.140;18.990;2023-07-13T10:17:35;98277.72;;;18.69;66.77
39491;BME280;25175;50.140;18.990;2023-07-13T10:21:12;98276.88;;;18.28;68.43
39491;BME280;25175;50.140;18.990;2023-07-13T10:24:49;98317.19;;;18.10;69.67
39491;BME280;25175;50.140;18.990;2023-07-13T10:31:46;98320.25;;;17.87;70.91
39491;BME280;25175;50.140;18.990;2023-07-13T10:34:55;98314.09;;;17.77;71.17
39491;BME280;25175;50.140;18.990;2023-07-13T10:38:07;98329.19;;;17.71;71.36
39491;BME280;25175;50.140;18.990;2023-07-13T10:49:10;98322.75;;;17.57;72.77
39491;BME280;25175;50.140;18.990;2023-07-13T10:52:43;98327.81;;;17.59;73.04
39491;BME280;25175;50.140;18.990;2023-07-13T10:56:28;98340.03;;;17.65;73.25
39491;BME280;25175;50.140;18.990;2023-07-13T10:59:47;98290.00;;;17.37;73.27
39491;BME280;25175;50.140;18.990;2023-07-13T11:02:59;98339.28;;;17.74;73.76
39491;BME280;25175;50.140;18.990;2023-07-13T11:06:34;98336.41;;;17.81;73.24
39491;BME280;25175;50.140;18.990;2023-07-13T11:10:00;98331.66;;;17.83;73.21
39491;BME280;25175;50.140;18.990;2023-07-13T11:14:37;98331.91;;;17.81;73.20
39491;BME280;25175;50.140;18.990;2023-07-13T11:18:22;98341.19;;;17.84;72.96
39491;BME280;25175;50.140;18.990;2023-07-13T11:21:30;98340.41;;;17.88;73.27
39491;BME280;25175;50.140;18.990;2023-07-13T11:25:00;98343.13;;;17.98;73.32
39491;BME280;25175;50.140;18.990;2023-07-13T11:28:27;98335.25;;;18.08;73.57
39491;BME280;25175;50.140;18.990;2023-07-13T11:31:41;98349.34;;;18.14;73.09
39491;BME280;25175;50.140;18.990;2023-07-13T11:34:50;98344.88;;;18.24;73.14
39491;BME280;25175;50.140;18.990;2023-07-13T11:38:21;98327.03;;;18.15;72.89
39491;BME280;25175;50.140;18.990;2023-07-13T11:41:50;98347.28;;;18.26;72.80
39491;BME280;25175;50.140;18.990;2023-07-13T11:45:19;98347.53;;;18.24;72.50
39491;BME280;25175;50.140;18.990;2023-07-13T11:48:34;98347.53;;;18.24;72.62
39491;BME280;25175;50.140;18.990;2023-07-13T11:51:44;98345.09;;;18.18;72.85
39491;BME280;25175;50.140;18.990;2023-07-13T11:55:01;98356.84;;;18.27;73.57
39491;BME280;25175;50.140;18.990;2023-07-13T12:02:17;98361.44;;;18.51;72.25
39491;BME280;25175;50.140;18.990;2023-07-13T12:05:34;98364.91;;;18.62;72.36
39491;BME280;25175;50.140;18.990;2023-07-13T12:09:16;98372.38;;;18.65;71.33
39491;BME280;25175;50.140;18.990;2023-07-13T12:16:37;98391.56;;;18.82;71.96
39491;BME280;25175;50.140;18.990;2023-07-13T12:21:19;98399.28;;;18.93;70.99
39491;BME280;25175;50.140;18.990;2023-07-13T12:23:51;98393.47;;;19.06;70.03
39491;BME280;25175;50.140;18.990;2023-07-13T12:27:01;98383.88;;;19.15;69.36
39491;BME280;25175;50.140;18.990;2023-07-13T12:30:35;98378.56;;;19.15;68.57
39491;BME280;25175;50.140;18.990;2023-07-13T12:33:43;98379.91;;;19.23;69.06
39491;BME280;25175;50.140;18.990;2023-07-13T12:37:13;98309.69;;;18.89;68.60
39491;BME280;25175;50.140;18.990;2023-07-13T12:40:32;98375.09;;;19.40;69.20
39491;BME280;25175;50.140;18.990;2023-07-13T12:43:57;98364.75;;;19.43;69.09
39491;BME280;25175;50.140;18.990;2023-07-13T12:47:06;98200.13;;;18.47;68.34
39491;BME280;25175;50.140;18.990;2023-07-13T12:50:27;98378.88;;;19.64;67.57
39491;BME280;25175;50.140;18.990;2023-07-13T12:57:32;98369.78;;;19.85;68.68
39491;BME280;25175;50.140;18.990;2023-07-13T13:00:50;98383.59;;;19.92;68.83
39491;BME280;25175;50.140;18.990;2023-07-13T13:04:03;98381.44;;;19.94;67.84
39491;BME280;25175;50.140;18.990;2023-07-13T13:07:12;98395.31;;;19.96;68.74
39491;BME280;25175;50.140;18.990;2023-07-13T13:10:29;98392.66;;;19.96;67.57
39491;BME280;25175;50.140;18.990;2023-07-13T13:13:39;98398.25;;;19.94;67.78
39491;BME280;25175;50.140;18.990;2023-07-13T13:16:50;98385.19;;;19.88;67.66
39491;BME280;25175;50.140;18.990;2023-07-13T13:20:00;98401.41;;;20.01;67.64
39491;BME280;25175;50.140;18.990;2023-07-13T13:23:20;98400.31;;;20.12;68.75
39491;BME280;25175;50.140;18.990;2023-07-13T13:26:28;98409.41;;;20.21;66.88
39491;BME280;25175;50.140;18.990;2023-07-13T13:29:47;98409.09;;;20.23;66.43
39491;BME280;25175;50.140;18.990;2023-07-13T13:32:55;98387.56;;;20.09;65.38
39491;BME280;25175;50.140;18.990;2023-07-13T13:36:03;98396.06;;;20.21;66.42
39491;BME280;25175;50.140;18.990;2023-07-13T13:39:23;98394.97;;;20.27;66.62
39491;BME280;25175;50.140;18.990;2023-07-13T13:42:32;98386.41;;;20.30;66.43
39491;BME280;25175;50.140;18.990;2023-07-13T13:45:47;98393.63;;;20.35;66.25
39491;BME280;25175;50.140;18.990;2023-07-13T13:48:54;98397.63;;;20.32;64.37
39491;BME280;25175;50.140;18.990;2023-07-13T13:52:09;98407.75;;;20.30;64.82
39491;BME280;25175;50.140;18.990;2023-07-13T13:55:25;98388.84;;;20.17;64.17
39491;BME280;25175;50.140;18.990;2023-07-13T13:58:30;98401.91;;;20.23;64.71
39491;BME280;25175;50.140;18.990;2023-07-13T14:02:22;98419.50;;;20.24;64.81
39491;BME280;25175;50.140;18.990;2023-07-13T14:05:48;98393.41;;;20.11;65.48
39491;BME280;25175;50.140;18.990;2023-07-13T14:08:54;98417.34;;;20.31;65.30
39491;BME280;25175;50.140;18.990;2023-07-13T14:12:01;98429.06;;;20.35;65.16
39491;BME280;25175;50.140;18.990;2023-07-13T14:15:14;98431.44;;;20.37;65.77
39491;BME280;25175;50.140;18.990;2023-07-13T14:18:29;98423.16;;;20.48;65.48
39491;BME280;25175;50.140;18.990;2023-07-13T14:21:35;98417.75;;;20.58;65.33
39491;BME280;25175;50.140;18.990;2023-07-13T14:24:58;98413.50;;;20.57;63.50
39491;BME280;25175;50.140;18.990;2023-07-13T14:28:19;98357.69;;;20.17;63.75
39491;BME280;25175;50.140;18.990;2023-07-13T14:31:35;98408.72;;;20.54;64.20
39491;BME280;25175;50.140;18.990;2023-07-13T14:34:43;98419.91;;;20.56;63.83
39491;BME280;25175;50.140;18.990;2023-07-13T14:37:53;98403.16;;;20.51;64.51
39491;BME280;25175;50.140;18.990;2023-07-13T14:40:58;98394.34;;;20.50;63.75
39491;BME280;25175;50.140;18.990;2023-07-13T14:44:10;98381.00;;;20.55;63.39
39491;BME280;25175;50.140;18.990;2023-07-13T14:47:23;98391.59;;;20.65;64.48
39491;BME280;25175;50.140;18.990;2023-07-13T14:50:34;98386.47;;;20.79;63.77
39491;BME280;25175;50.140;18.990;2023-07-13T14:53:42;98404.81;;;20.90;62.73
39491;BME280;25175;50.140;18.990;2023-07-13T14:56:51;98421.81;;;21.04;62.75
39491;BME280;25175;50.140;18.990;2023-07-13T15:00:04;98422.53;;;21.15;61.49
39491;BME280;25175;50.140;18.990;2023-07-13T15:03:19;98417.88;;;21.30;62.60
39491;BME280;25175;50.140;18.990;2023-07-13T15:06:31;98405.91;;;21.28;61.19
39491;BME280;25175;50.140;18.990;2023-07-13T15:09:57;98414.69;;;21.28;58.75
39491;BME280;25175;50.140;18.990;2023-07-13T15:13:14;98409.88;;;21.30;59.78
39491;BME280;25175;50.140;18.990;2023-07-13T15:16:24;98396.38;;;21.17;58.01
39491;BME280;25175;50.140;18.990;2023-07-13T15:19:33;98402.66;;;21.31;58.65
39491;BME280;25175;50.140;18.990;2023-07-13T15:22:45;98391.13;;;21.35;58.91
39491;BME280;25175;50.140;18.990;2023-07-13T15:25:55;98391.69;;;21.37;58.34
39491;BME280;25175;50.140;18.990;2023-07-13T15:29:01;98395.97;;;21.33;58.50
39491;BME280;25175;50.140;18.990;2023-07-13T15:32:12;98396.50;;;21.30;58.23
39491;BME280;25175;50.140;18.990;2023-07-13T15:35:21;98401.31;;;21.33;58.78
39491;BME280;25175;50.140;18.990;2023-07-13T15:38:36;98391.06;;;21.45;58.67
39491;BME280;25175;50.140;18.990;2023-07-13T15:41:45;98395.50;;;21.60;57.37
39491;BME280;25175;50.140;18.990;2023-07-13T15:44:52;98396.00;;;21.67;57.26
39491;BME280;25175;50.140;18.990;2023-07-13T15:48:02;98414.88;;;21.75;57.36
39491;BME280;25175;50.140;18.990;2023-07-13T15:51:25;98406.28;;;21.78;56.79
39491;BME280;25175;50.140;18.990;2023-07-13T15:54:38;98409.41;;;21.85;56.83
39491;BME280;25175;50.140;18.990;2023-07-13T15:57:46;98406.72;;;21.85;56.46
39491;BME280;25175;50.140;18.990;2023-07-13T16:00:54;98404.06;;;21.85;54.95
39491;BME280;25175;50.140;18.990;2023-07-13T16:04:00;98407.28;;;21.87;55.53
39491;BME280;25175;50.140;18.990;2023-07-13T16:07:09;98365.94;;;21.51;55.94
39491;BME280;25175;50.140;18.990;2023-07-13T16:10:21;98408.13;;;21.83;56.94
39491;BME280;25175;50.140;18.990;2023-07-13T16:13:31;98404.88;;;21.86;56.24
39491;BME280;25175;50.140;18.990;2023-07-13T16:16:36;98412.09;;;21.85;56.89
39491;BME280;25175;50.140;18.990;2023-07-13T16:19:48;98430.41;;;21.97;55.86
39491;BME280;25175;50.140;18.990;2023-07-13T16:23:26;98431.78;;;21.94;55.15
39491;BME280;25175;50.140;18.990;2023-07-13T16:26:37;98433.09;;;21.97;56.12
39491;BME280;25175;50.140;18.990;2023-07-13T16:29:44;98433.91;;;21.97;56.41
39491;BME280;25175;50.140;18.990;2023-07-13T16:32:51;98437.03;;;22.04;55.67
39491;BME280;25175;50.140;18.990;2023-07-13T16:35:57;98432.38;;;22.15;56.55
39491;BME280;25175;50.140;18.990;2023-07-13T16:39:12;98432.56;;;22.23;56.32
39491;BME280;25175;50.140;18.990;2023-07-13T16:42:21;98423.47;;;22.24;55.63
39491;BME280;25175;50.140;18.990;2023-07-13T16:45:30;98375.84;;;22.03;56.77
39491;BME280;25175;50.140;18.990;2023-07-13T16:48:53;98428.56;;;22.44;55.79
39491;BME280;25175;50.140;18.990;2023-07-13T16:52:18;98437.19;;;22.41;54.20
39491;BME280;25175;50.140;18.990;2023-07-13T16:55:27;98436.66;;;22.39;55.40
39491;BME280;25175;50.140;18.990;2023-07-13T16:58:36;98445.50;;;22.40;54.93
39491;BME280;25175;50.140;18.990;2023-07-13T17:01:42;98443.91;;;22.39;54.31
39491;BME280;25175;50.140;18.990;2023-07-13T17:04:48;98393.50;;;21.99;54.19
39491;BME280;25175;50.140;18.990;2023-07-13T17:07:54;98442.53;;;22.41;53.61
39491;BME280;25175;50.140;18.990;2023-07-13T17:11:01;98425.50;;;22.32;52.56
39491;BME280;25175;50.140;18.990;2023-07-13T17:14:13;98438.03;;;22.37;52.75
39491;BME280;25175;50.140;18.990;2023-07-13T17:17:29;98438.84;;;22.37;53.67
39491;BME280;25175;50.140;18.990;2023-07-13T17:20:39;98424.22;;;22.30;53.74
39491;BME280;25175;50.140;18.990;2023-07-13T17:23:49;98438.25;;;22.40;53.79
39491;BME280;25175;50.140;18.990;2023-07-13T17:26:58;98432.13;;;22.40;53.56
39491;BME280;25175;50.140;18.990;2023-07-13T17:30:14;98458.84;;;22.40;53.07
39491;BME280;25175;50.140;18.990;2023-07-13T17:33:29;98451.63;;;22.40;53.47
39491;BME280;25175;50.140;18.990;2023-07-13T17:36:39;98447.34;;;22.39;53.63
39491;BME280;25175;50.140;18.990;2023-07-13T17:39:47;98443.16;;;22.33;53.19
39491;BME280;25175;50.140;18.990;2023-07-13T17:42:56;98450.38;;;22.33;52.95
39491;BME280;25175;50.140;18.990;2023-07-13T17:46:10;98452.53;;;22.31;52.74
39491;BME280;25175;50.140;18.990;2023-07-13T17:49:30;98454.94;;;22.32;52.26
39491;BME280;25175;50.140;18.990;2023-07-13T17:52:36;98467.50;;;22.32;52.83
39491;BME280;25175;50.140;18.990;2023-07-13T17:55:42;98467.75;;;22.35;53.11
39491;BME280;25175;50.140;18.990;2023-07-13T17:58:49;98455.31;;;22.21;54.74
39491;BME280;25175;50.140;18.990;2023-07-13T18:02:18;98465.06;;;22.35;54.31
39491;BME280;25175;50.140;18.990;2023-07-13T18:05:27;98460.50;;;22.36;54.81
39491;BME280;25175;50.140;18.990;2023-07-13T18:08:34;98460.84;;;22.29;53.82
39491;BME280;25175;50.140;18.990;2023-07-13T18:11:40;98467.84;;;22.25;54.62
39491;BME280;25175;50.140;18.990;2023-07-13T18:14:46;98468.69;;;22.21;54.60
39491;BME280;25175;50.140;18.990;2023-07-13T18:17:59;98473.28;;;22.15;54.98
39491;BME280;25175;50.140;18.990;2023-07-13T18:21:10;98493.09;;;22.09;54.75
39491;BME280;25175;50.140;18.990;2023-07-13T18:24:18;98488.63;;;22.05;55.53
39491;BME280;25175;50.140;18.990;2023-07-13T18:27:24;98484.13;;;21.95;55.01
39491;BME280;25175;50.140;18.990;2023-07-13T18:30:38;98493.50;;;21.93;54.95
39491;BME280;25175;50.140;18.990;2023-07-13T18:33:52;98482.66;;;21.79;54.92
39491;BME280;25175;50.140;18.990;2023-07-13T18:37:18;98483.72;;;21.83;55.41
39491;BME280;25175;50.140;18.990;2023-07-13T18:40:47;98498.44;;;21.81;56.26